sensor_id;sensor_type;location;lat;lon;timestamp;P1;durP1;ratioP1;P2;durP2;ratioP2
14994;SDS011;7593;49.006;8.372;2022-08-19T00:01:48;14.10;;;12.70;;
14994;SDS011;7593;49.006;8.372;2022-08-19T00:04:17;13.32;;;12.23;;
14994;SDS011;7593;49.006;8.372;2022-08-19T00:06:46;13.75;;;12.30;;
14994;SDS011;7593;49.006;8.372;2022-08-19T00:09:14;14.45;;;13.02;;
14994;SDS011;7593;49.006;8.372;2022-08-19T00:11:44;14.32;;;13.02;;
14994;SDS011;7593;49.006;8.372;2022-08-19T00:14:12;14.98;;;13.68;;
14994;SDS011;7593;49.006;8.372;2022-08-19T00:16:42;15.48;;;14.07;;
14994;SDS011;7593;49.006;8.372;2022-08-19T00:19:11;15.68;;;14.27;;
14994;SDS011;7593;49.006;8.372;2022-08-19T00:21:38;15.40;;;14.00;;
14994;SDS011;7593;49.006;8.372;2022-08-19T00:24:05;15.57;;;14.25;;
14994;SDS011;7593;49.006;8.372;2022-08-19T00:26:33;15.35;;;13.95;;
14994;SDS011;7593;49.006;8.372;2022-08-19T00:29:03;14.57;;;13.35;;
14994;SDS011;7593;49.006;8.372;2022-08-19T00:31:30;15.55;;;14.15;;
14994;SDS011;7593;49.006;8.372;2022-08-19T00:33:58;15.43;;;14.02;;
14994;SDS011;7593;49.006;8.372;2022-08-19T00:36:25;15.18;;;13.80;;
14994;SDS011;7593;49.006;8.372;2022-08-19T00:38:53;15.15;;;13.85;;
14994;SDS011;7593;49.006;8.372;2022-08-19T00:41:21;15.18;;;13.82;;
14994;SDS011;7593;49.006;8.372;2022-08-19T00:43:56;15.50;;;13.93;;
14994;SDS011;7593;49.006;8.372;2022-08-19T00:46:29;14.40;;;13.05;;
14994;SDS011;7593;49.006;8.372;2022-08-19T00:48:57;14.18;;;12.98;;
14994;SDS011;7593;49.006;8.372;2022-08-19T00:51:26;13.82;;;12.73;;
14994;SDS011;7593;49.006;8.372;2022-08-19T00:53:55;14.48;;;13.07;;
14994;SDS011;7593;49.006;8.372;2022-08-19T00:56:24;15.02;;;13.73;;
14994;SDS011;7593;49.006;8.372;2022-08-19T00:58:52;14.77;;;13.57;;
14994;SDS011;7593;49.006;8.372;2022-08-19T01:01:22;14.55;;;13.15;;
14994;SDS011;7593;49.006;8.372;2022-08-19T01:03:50;14.60;;;13.20;;
14994;SDS011;7593;49.006;8.372;2022-08-19T01:06:17;14.68;;;13.25;;
14994;SDS011;7593;49.006;8.372;2022-08-19T01:08:44;15.13;;;13.70;;
14994;SDS011;7593;49.006;8.372;2022-08-19T01:11:11;14.70;;;13.27;;
14994;SDS011;7593;49.006;8.372;2022-08-19T01:13:39;14.32;;;13.13;;
14994;SDS011;7593;49.006;8.372;2022-08-19T01:16:07;14.82;;;13.52;;
14994;SDS011;7593;49.006;8.372;2022-08-19T01:18:36;15.38;;;13.98;;
14994;SDS011;7593;49.006;8.372;2022-08-19T01:21:08;15.65;;;14.30;;
14994;SDS011;7593;49.006;8.372;2022-08-19T01:23:42;15.48;;;14.18;;
14994;SDS011;7593;49.006;8.372;2022-08-19T01:26:10;16.70;;;15.20;;
14994;SDS011;7593;49.006;8.372;2022-08-19T01:28:41;16.20;;;14.90;;
14994;SDS011;7593;49.006;8.372;2022-08-19T01:31:11;16.77;;;15.38;;
14994;SDS011;7593;49.006;8.372;2022-08-19T01:33:39;17.23;;;15.85;;
14994;SDS011;7593;49.006;8.372;2022-08-19T01:36:07;17.95;;;16.33;;
14994;SDS011;7593;49.006;8.372;2022-08-19T01:38:38;18.52;;;16.85;;
14994;SDS011;7593;49.006;8.372;2022-08-19T01:41:09;18.05;;;16.45;;
14994;SDS011;7593;49.006;8.372;2022-08-19T01:43:36;18.17;;;16.58;;
14994;SDS011;7593;49.006;8.372;2022-08-19T01:46:03;18.67;;;17.05;;
14994;SDS011;7593;49.006;8.372;2022-08-19T01:48:33;19.25;;;17.50;;
14994;SDS011;7593;49.006;8.372;2022-08-19T01:51:00;19.38;;;17.77;;
14994;SDS011;7593;49.006;8.372;2022-08-19T01:53:28;20.33;;;18.63;;
14994;SDS011;7593;49.006;8.372;2022-08-19T01:55:55;20.42;;;18.65;;
14994;SDS011;7593;49.006;8.372;2022-08-19T01:58:24;21.40;;;19.30;;
14994;SDS011;7593;49.006;8.372;2022-08-19T02:00:55;21.52;;;19.70;;
14994;SDS011;7593;49.006;8.372;2022-08-19T02:03:23;20.42;;;18.73;;
14994;SDS011;7593;49.006;8.372;2022-08-19T02:05:53;20.95;;;18.98;;
14994;SDS011;7593;49.006;8.372;2022-08-19T02:08:21;19.35;;;17.60;;
14994;SDS011;7593;49.006;8.372;2022-08-19T02:10:48;20.50;;;18.73;;
14994;SDS011;7593;49.006;8.372;2022-08-19T02:13:15;19.80;;;18.10;;
14994;SDS011;7593;49.006;8.372;2022-08-19T02:15:44;20.52;;;18.52;;
14994;SDS011;7593;49.006;8.372;2022-08-19T02:18:11;19.50;;;17.83;;
14994;SDS011;7593;49.006;8.372;2022-08-19T02:20:39;20.33;;;18.63;;
14994;SDS011;7593;49.006;8.372;2022-08-19T02:23:07;22.33;;;20.33;;
14994;SDS011;7593;49.006;8.372;2022-08-19T02:25:35;20.75;;;18.95;;
14994;SDS011;7593;49.006;8.372;2022-08-19T02:28:02;20.65;;;18.92;;
14994;SDS011;7593;49.006;8.372;2022-08-19T02:30:29;20.48;;;18.63;;
14994;SDS011;7593;49.006;8.372;2022-08-19T02:32:58;21.30;;;19.13;;
14994;SDS011;7593;49.006;8.372;2022-08-19T02:35:24;21.17;;;19.27;;
14994;SDS011;7593;49.006;8.372;2022-08-19T02:37:51;21.95;;;19.95;;
14994;SDS011;7593;49.006;8.372;2022-08-19T02:40:36;21.70;;;19.90;;
14994;SDS011;7593;49.006;8.372;2022-08-19T02:43:03;23.73;;;21.52;;
14994;SDS011;7593;49.006;8.372;2022-08-19T02:45:32;23.52;;;21.45;;
14994;SDS011;7593;49.006;8.372;2022-08-19T02:48:00;23.42;;;21.33;;
14994;SDS011;7593;49.006;8.372;2022-08-19T02:50:29;24.02;;;21.92;;
14994;SDS011;7593;49.006;8.372;2022-08-19T02:52:56;23.33;;;21.23;;
14994;SDS011;7593;49.006;8.372;2022-08-19T02:55:22;23.20;;;21.17;;
14994;SDS011;7593;49.006;8.372;2022-08-19T02:57:49;23.58;;;21.30;;
14994;SDS011;7593;49.006;8.372;2022-08-19T03:00:16;24.65;;;22.25;;
14994;SDS011;7593;49.006;8.372;2022-08-19T03:02:43;24.13;;;21.85;;
14994;SDS011;7593;49.006;8.372;2022-08-19T03:05:13;23.63;;;21.42;;
14994;SDS011;7593;49.006;8.372;2022-08-19T03:07:40;24.35;;;22.08;;
14994;SDS011;7593;49.006;8.372;2022-08-19T03:10:07;24.85;;;22.45;;
14994;SDS011;7593;49.006;8.372;2022-08-19T03:12:35;24.60;;;22.50;;
14994;SDS011;7593;49.006;8.372;2022-08-19T03:15:03;24.73;;;22.52;;
14994;SDS011;7593;49.006;8.372;2022-08-19T03:17:32;24.48;;;22.30;;
14994;SDS011;7593;49.006;8.372;2022-08-19T03:19:59;24.98;;;22.77;;
14994;SDS011;7593;49.006;8.372;2022-08-19T03:22:27;25.05;;;22.77;;
14994;SDS011;7593;49.006;8.372;2022-08-19T03:24:55;25.33;;;23.02;;
14994;SDS011;7593;49.006;8.372;2022-08-19T03:27:21;24.38;;;22.17;;
14994;SDS011;7593;49.006;8.372;2022-08-19T03:29:48;26.23;;;23.92;;
14994;SDS011;7593;49.006;8.372;2022-08-19T03:32:15;26.52;;;23.77;;
14994;SDS011;7593;49.006;8.372;2022-08-19T03:34:42;25.55;;;23.25;;
14994;SDS011;7593;49.006;8.372;2022-08-19T03:37:10;24.27;;;21.92;;
14994;SDS011;7593;49.006;8.372;2022-08-19T03:39:39;25.23;;;23.02;;
14994;SDS011;7593;49.006;8.372;2022-08-19T03:42:07;26.35;;;23.80;;
14994;SDS011;7593;49.006;8.372;2022-08-19T03:44:34;25.08;;;22.52;;
14994;SDS011;7593;49.006;8.372;2022-08-19T03:47:02;23.80;;;21.70;;
14994;SDS011;7593;49.006;8.372;2022-08-19T03:49:30;23.55;;;21.35;;
14994;SDS011;7593;49.006;8.372;2022-08-19T03:52:00;23.65;;;21.48;;
14994;SDS011;7593;49.006;8.372;2022-08-19T03:54:27;24.27;;;21.88;;
14994;SDS011;7593;49.006;8.372;2022-08-19T03:56:56;24.50;;;22.30;;
14994;SDS011;7593;49.006;8.372;2022-08-19T03:59:24;25.13;;;22.80;;
14994;SDS011;7593;49.006;8.372;2022-08-19T04:01:55;25.13;;;22.83;;
14994;SDS011;7593;49.006;8.372;2022-08-19T04:04:23;26.27;;;23.73;;
14994;SDS011;7593;49.006;8.372;2022-08-19T04:06:50;25.95;;;23.55;;
14994;SDS011;7593;49.006;8.372;2022-08-19T04:09:18;25.52;;;23.13;;
14994;SDS011;7593;49.006;8.372;2022-08-19T04:11:47;25.30;;;23.05;;
14994;SDS011;7593;49.006;8.372;2022-08-19T04:14:20;27.42;;;24.70;;
14994;SDS011;7593;49.006;8.372;2022-08-19T04:16:49;28.23;;;25.45;;
14994;SDS011;7593;49.006;8.372;2022-08-19T04:19:17;27.50;;;25.00;;
14994;SDS011;7593;49.006;8.372;2022-08-19T04:21:45;26.60;;;24.25;;
14994;SDS011;7593;49.006;8.372;2022-08-19T04:24:14;27.45;;;25.00;;
14994;SDS011;7593;49.006;8.372;2022-08-19T04:26:41;28.50;;;25.85;;
14994;SDS011;7593;49.006;8.372;2022-08-19T04:29:10;28.40;;;25.70;;
14994;SDS011;7593;49.006;8.372;2022-08-19T04:31:40;28.25;;;24.60;;
14994;SDS011;7593;49.006;8.372;2022-08-19T04:34:09;26.50;;;24.17;;
14994;SDS011;7593;49.006;8.372;2022-08-19T04:36:39;28.10;;;25.50;;
14994;SDS011;7593;49.006;8.372;2022-08-19T04:39:07;31.90;;;25.00;;
14994;SDS011;7593;49.006;8.372;2022-08-19T04:41:35;29.75;;;24.77;;
14994;SDS011;7593;49.006;8.372;2022-08-19T04:44:20;26.45;;;24.13;;
14994;SDS011;7593;49.006;8.372;2022-08-19T04:46:48;26.75;;;24.13;;
14994;SDS011;7593;49.006;8.372;2022-08-19T04:49:17;26.77;;;24.13;;
14994;SDS011;7593;49.006;8.372;2022-08-19T04:51:47;27.10;;;24.25;;
14994;SDS011;7593;49.006;8.372;2022-08-19T04:54:14;25.48;;;23.17;;
14994;SDS011;7593;49.006;8.372;2022-08-19T04:56:42;25.95;;;23.35;;
14994;SDS011;7593;49.006;8.372;2022-08-19T04:59:09;23.65;;;21.48;;
14994;SDS011;7593;49.006;8.372;2022-08-19T05:01:36;25.63;;;22.92;;
14994;SDS011;7593;49.006;8.372;2022-08-19T05:04:05;25.73;;;23.05;;
14994;SDS011;7593;49.006;8.372;2022-08-19T05:06:32;24.30;;;22.10;;
14994;SDS011;7593;49.006;8.372;2022-08-19T05:09:00;32.60;;;22.63;;
14994;SDS011;7593;49.006;8.372;2022-08-19T05:11:29;24.25;;;22.00;;
14994;SDS011;7593;49.006;8.372;2022-08-19T05:13:58;24.02;;;21.73;;
14994;SDS011;7593;49.006;8.372;2022-08-19T05:16:26;23.98;;;21.52;;
14994;SDS011;7593;49.006;8.372;2022-08-19T05:18:53;24.27;;;21.85;;
14994;SDS011;7593;49.006;8.372;2022-08-19T05:21:40;23.90;;;21.55;;
14994;SDS011;7593;49.006;8.372;2022-08-19T05:24:25;24.17;;;21.63;;
14994;SDS011;7593;49.006;8.372;2022-08-19T05:26:53;23.42;;;21.23;;
14994;SDS011;7593;49.006;8.372;2022-08-19T05:29:23;23.98;;;21.50;;
14994;SDS011;7593;49.006;8.372;2022-08-19T05:31:52;23.38;;;21.27;;
14994;SDS011;7593;49.006;8.372;2022-08-19T05:34:21;23.13;;;21.02;;
14994;SDS011;7593;49.006;8.372;2022-08-19T05:36:52;23.48;;;21.42;;
14994;SDS011;7593;49.006;8.372;2022-08-19T05:39:24;24.40;;;22.00;;
14994;SDS011;7593;49.006;8.372;2022-08-19T05:41:54;23.25;;;21.15;;
14994;SDS011;7593;49.006;8.372;2022-08-19T05:44:23;25.15;;;22.65;;
14994;SDS011;7593;49.006;8.372;2022-08-19T05:46:51;22.92;;;20.65;;
14994;SDS011;7593;49.006;8.372;2022-08-19T05:49:19;23.48;;;21.40;;
14994;SDS011;7593;49.006;8.372;2022-08-19T05:51:47;23.90;;;21.70;;
14994;SDS011;7593;49.006;8.372;2022-08-19T05:54:16;23.02;;;21.02;;
14994;SDS011;7593;49.006;8.372;2022-08-19T05:56:46;21.35;;;19.55;;
14994;SDS011;7593;49.006;8.372;2022-08-19T05:59:14;22.92;;;20.65;;
14994;SDS011;7593;49.006;8.372;2022-08-19T06:01:42;21.73;;;19.52;;
14994;SDS011;7593;49.006;8.372;2022-08-19T06:04:11;21.52;;;19.33;;
14994;SDS011;7593;49.006;8.372;2022-08-19T06:06:39;21.67;;;19.55;;
14994;SDS011;7593;49.006;8.372;2022-08-19T06:09:07;21.02;;;18.58;;
14994;SDS011;7593;49.006;8.372;2022-08-19T06:11:36;21.00;;;18.23;;
14994;SDS011;7593;49.006;8.372;2022-08-19T06:14:08;20.55;;;18.75;;
14994;SDS011;7593;49.006;8.372;2022-08-19T06:16:41;20.15;;;18.30;;
14994;SDS011;7593;49.006;8.372;2022-08-19T06:19:09;19.38;;;17.65;;
14994;SDS011;7593;49.006;8.372;2022-08-19T06:21:40;20.63;;;18.80;;
14994;SDS011;7593;49.006;8.372;2022-08-19T06:24:10;19.92;;;18.20;;
14994;SDS011;7593;49.006;8.372;2022-08-19T06:26:47;21.10;;;19.16;;
14994;SDS011;7593;49.006;8.372;2022-08-19T06:29:16;20.35;;;17.88;;
14994;SDS011;7593;49.006;8.372;2022-08-19T06:31:44;20.10;;;18.23;;
14994;SDS011;7593;49.006;8.372;2022-08-19T06:34:14;21.13;;;19.05;;
14994;SDS011;7593;49.006;8.372;2022-08-19T06:36:42;20.85;;;18.85;;
14994;SDS011;7593;49.006;8.372;2022-08-19T06:39:11;20.38;;;18.50;;
14994;SDS011;7593;49.006;8.372;2022-08-19T06:41:40;19.17;;;17.58;;
14994;SDS011;7593;49.006;8.372;2022-08-19T06:44:09;19.15;;;17.48;;
14994;SDS011;7593;49.006;8.372;2022-08-19T06:46:37;19.48;;;17.65;;
14994;SDS011;7593;49.006;8.372;2022-08-19T06:49:05;19.63;;;17.77;;
14994;SDS011;7593;49.006;8.372;2022-08-19T06:51:36;19.77;;;17.98;;
14994;SDS011;7593;49.006;8.372;2022-08-19T06:54:03;20.60;;;17.92;;
14994;SDS011;7593;49.006;8.372;2022-08-19T06:56:31;19.50;;;17.60;;
14994;SDS011;7593;49.006;8.372;2022-08-19T06:58:59;19.52;;;17.80;;
14994;SDS011;7593;49.006;8.372;2022-08-19T07:01:28;19.42;;;17.52;;
14994;SDS011;7593;49.006;8.372;2022-08-19T07:03:55;19.00;;;17.15;;
14994;SDS011;7593;49.006;8.372;2022-08-19T07:06:22;19.13;;;17.20;;
14994;SDS011;7593;49.006;8.372;2022-08-19T07:08:49;18.02;;;16.38;;
14994;SDS011;7593;49.006;8.372;2022-08-19T07:11:17;17.20;;;15.63;;
14994;SDS011;7593;49.006;8.372;2022-08-19T07:13:46;17.70;;;15.98;;
14994;SDS011;7593;49.006;8.372;2022-08-19T07:16:14;17.08;;;15.57;;
14994;SDS011;7593;49.006;8.372;2022-08-19T07:18:46;17.77;;;15.90;;
14994;SDS011;7593;49.006;8.372;2022-08-19T07:21:15;18.00;;;16.38;;
14994;SDS011;7593;49.006;8.372;2022-08-19T07:23:43;16.77;;;15.38;;
14994;SDS011;7593;49.006;8.372;2022-08-19T07:26:12;16.23;;;14.93;;
14994;SDS011;7593;49.006;8.372;2022-08-19T07:28:40;16.20;;;14.70;;
14994;SDS011;7593;49.006;8.372;2022-08-19T07:31:09;16.08;;;14.52;;
14994;SDS011;7593;49.006;8.372;2022-08-19T07:33:39;15.93;;;14.40;;
14994;SDS011;7593;49.006;8.372;2022-08-19T07:36:09;15.38;;;13.88;;
14994;SDS011;7593;49.006;8.372;2022-08-19T07:38:45;15.40;;;14.00;;
14994;SDS011;7593;49.006;8.372;2022-08-19T07:41:15;15.93;;;14.63;;
14994;SDS011;7593;49.006;8.372;2022-08-19T07:43:44;15.20;;;13.80;;
14994;SDS011;7593;49.006;8.372;2022-08-19T07:46:11;14.90;;;13.52;;
14994;SDS011;7593;49.006;8.372;2022-08-19T07:48:39;15.70;;;13.15;;
14994;SDS011;7593;49.006;8.372;2022-08-19T07:51:15;14.75;;;13.48;;
14994;SDS011;7593;49.006;8.372;2022-08-19T07:53:47;14.40;;;13.10;;
14994;SDS011;7593;49.006;8.372;2022-08-19T07:56:16;14.20;;;12.90;;
14994;SDS011;7593;49.006;8.372;2022-08-19T07:58:45;13.57;;;12.38;;
14994;SDS011;7593;49.006;8.372;2022-08-19T08:01:14;14.57;;;12.93;;
14994;SDS011;7593;49.006;8.372;2022-08-19T08:03:42;13.82;;;12.30;;
14994;SDS011;7593;49.006;8.372;2022-08-19T08:06:28;17.10;;;11.77;;
14994;SDS011;7593;49.006;8.372;2022-08-19T08:09:13;12.57;;;11.27;;
14994;SDS011;7593;49.006;8.372;2022-08-19T08:11:47;12.98;;;11.35;;
14994;SDS011;7593;49.006;8.372;2022-08-19T08:14:15;13.45;;;10.93;;
14994;SDS011;7593;49.006;8.372;2022-08-19T08:16:44;12.25;;;10.82;;
14994;SDS011;7593;49.006;8.372;2022-08-19T08:19:11;16.33;;;11.50;;
14994;SDS011;7593;49.006;8.372;2022-08-19T08:21:42;11.88;;;10.68;;
14994;SDS011;7593;49.006;8.372;2022-08-19T08:24:09;14.80;;;10.77;;
14994;SDS011;7593;49.006;8.372;2022-08-19T08:26:37;11.73;;;10.43;;
14994;SDS011;7593;49.006;8.372;2022-08-19T08:29:04;13.73;;;10.30;;
14994;SDS011;7593;49.006;8.372;2022-08-19T08:31:33;10.65;;;9.55;;
14994;SDS011;7593;49.006;8.372;2022-08-19T08:34:00;16.98;;;10.20;;
14994;SDS011;7593;49.006;8.372;2022-08-19T08:36:30;11.40;;;10.20;;
14994;SDS011;7593;49.006;8.372;2022-08-19T08:38:59;10.32;;;9.38;;
14994;SDS011;7593;49.006;8.372;2022-08-19T08:41:28;9.60;;;8.70;;
14994;SDS011;7593;49.006;8.372;2022-08-19T08:44:01;9.07;;;8.18;;
14994;SDS011;7593;49.006;8.372;2022-08-19T08:46:32;10.05;;;8.48;;
14994;SDS011;7593;49.006;8.372;2022-08-19T08:49:06;9.30;;;8.40;;
14994;SDS011;7593;49.006;8.372;2022-08-19T08:51:46;9.38;;;8.45;;
14994;SDS011;7593;49.006;8.372;2022-08-19T08:54:20;10.98;;;8.38;;
14994;SDS011;7593;49.006;8.372;2022-08-19T08:56:49;10.02;;;8.45;;
14994;SDS011;7593;49.006;8.372;2022-08-19T08:59:21;8.20;;;7.40;;
14994;SDS011;7593;49.006;8.372;2022-08-19T09:01:52;8.80;;;7.90;;
14994;SDS011;7593;49.006;8.372;2022-08-19T09:04:19;8.70;;;7.18;;
14994;SDS011;7593;49.006;8.372;2022-08-19T09:06:49;9.95;;;7.05;;
14994;SDS011;7593;49.006;8.372;2022-08-19T09:09:26;10.27;;;7.15;;
14994;SDS011;7593;49.006;8.372;2022-08-19T09:12:02;8.23;;;6.60;;
14994;SDS011;7593;49.006;8.372;2022-08-19T09:14:37;8.68;;;7.13;;
14994;SDS011;7593;49.006;8.372;2022-08-19T09:17:12;7.60;;;6.75;;
14994;SDS011;7593;49.006;8.372;2022-08-19T09:19:46;9.48;;;8.25;;
14994;SDS011;7593;49.006;8.372;2022-08-19T09:22:16;7.30;;;6.60;;
14994;SDS011;7593;49.006;8.372;2022-08-19T09:24:47;6.63;;;5.93;;
14994;SDS011;7593;49.006;8.372;2022-08-19T09:27:15;6.78;;;5.78;;
14994;SDS011;7593;49.006;8.372;2022-08-19T09:29:42;6.70;;;5.90;;
14994;SDS011;7593;49.006;8.372;2022-08-19T09:32:09;7.55;;;5.50;;
14994;SDS011;7593;49.006;8.372;2022-08-19T09:34:35;7.43;;;5.90;;
14994;SDS011;7593;49.006;8.372;2022-08-19T09:37:02;16.25;;;6.43;;
14994;SDS011;7593;49.006;8.372;2022-08-19T09:39:30;7.07;;;5.90;;
14994;SDS011;7593;49.006;8.372;2022-08-19T09:41:58;6.03;;;5.43;;
14994;SDS011;7593;49.006;8.372;2022-08-19T09:44:25;6.05;;;5.55;;
14994;SDS011;7593;49.006;8.372;2022-08-19T09:46:52;15.23;;;6.20;;
14994;SDS011;7593;49.006;8.372;2022-08-19T09:49:19;5.40;;;4.90;;
14994;SDS011;7593;49.006;8.372;2022-08-19T09:51:49;8.32;;;4.72;;
14994;SDS011;7593;49.006;8.372;2022-08-19T09:54:17;10.52;;;5.07;;
14994;SDS011;7593;49.006;8.372;2022-08-19T09:56:44;6.65;;;4.70;;
14994;SDS011;7593;49.006;8.372;2022-08-19T09:59:15;5.30;;;4.20;;
14994;SDS011;7593;49.006;8.372;2022-08-19T10:01:43;5.63;;;4.28;;
14994;SDS011;7593;49.006;8.372;2022-08-19T10:04:10;5.10;;;4.60;;
14994;SDS011;7593;49.006;8.372;2022-08-19T10:06:37;4.35;;;4.05;;
14994;SDS011;7593;49.006;8.372;2022-08-19T10:09:07;4.50;;;4.10;;
14994;SDS011;7593;49.006;8.372;2022-08-19T10:11:36;4.93;;;4.40;;
14994;SDS011;7593;49.006;8.372;2022-08-19T10:14:05;9.10;;;4.90;;
14994;SDS011;7593;49.006;8.372;2022-08-19T10:16:36;6.60;;;4.50;;
14994;SDS011;7593;49.006;8.372;2022-08-19T10:19:04;7.68;;;5.32;;
14994;SDS011;7593;49.006;8.372;2022-08-19T10:21:32;7.85;;;4.75;;
14994;SDS011;7593;49.006;8.372;2022-08-19T10:24:00;4.88;;;4.38;;
14994;SDS011;7593;49.006;8.372;2022-08-19T10:26:31;6.18;;;4.68;;
14994;SDS011;7593;49.006;8.372;2022-08-19T10:29:01;6.32;;;4.90;;
14994;SDS011;7593;49.006;8.372;2022-08-19T10:31:30;4.82;;;4.40;;
14994;SDS011;7593;49.006;8.372;2022-08-19T10:34:00;4.80;;;4.30;;
14994;SDS011;7593;49.006;8.372;2022-08-19T10:36:28;5.20;;;4.75;;
14994;SDS011;7593;49.006;8.372;2022-08-19T10:38:57;5.95;;;4.07;;
14994;SDS011;7593;49.006;8.372;2022-08-19T10:41:28;13.13;;;5.07;;
14994;SDS011;7593;49.006;8.372;2022-08-19T10:43:56;8.50;;;4.72;;
14994;SDS011;7593;49.006;8.372;2022-08-19T10:46:26;4.53;;;3.92;;
14994;SDS011;7593;49.006;8.372;2022-08-19T10:48:54;4.75;;;3.70;;
14994;SDS011;7593;49.006;8.372;2022-08-19T10:51:22;9.80;;;4.40;;
14994;SDS011;7593;49.006;8.372;2022-08-19T10:54:06;5.70;;;4.82;;
14994;SDS011;7593;49.006;8.372;2022-08-19T10:56:34;5.82;;;3.80;;
14994;SDS011;7593;49.006;8.372;2022-08-19T10:59:18;4.50;;;3.72;;
14994;SDS011;7593;49.006;8.372;2022-08-19T11:01:47;4.38;;;3.95;;
14994;SDS011;7593;49.006;8.372;2022-08-19T11:04:15;6.03;;;4.18;;
14994;SDS011;7593;49.006;8.372;2022-08-19T11:06:45;5.38;;;4.88;;
14994;SDS011;7593;49.006;8.372;2022-08-19T11:09:13;5.32;;;4.82;;
14994;SDS011;7593;49.006;8.372;2022-08-19T11:11:41;5.60;;;5.07;;
14994;SDS011;7593;49.006;8.372;2022-08-19T11:14:09;5.85;;;4.55;;
14994;SDS011;7593;49.006;8.372;2022-08-19T11:16:37;8.02;;;4.82;;
14994;SDS011;7593;49.006;8.372;2022-08-19T11:19:04;5.78;;;4.55;;
14994;SDS011;7593;49.006;8.372;2022-08-19T11:21:34;10.68;;;5.45;;
14994;SDS011;7593;49.006;8.372;2022-08-19T11:24:04;5.40;;;4.90;;
14994;SDS011;7593;49.006;8.372;2022-08-19T11:26:34;5.47;;;4.97;;
14994;SDS011;7593;49.006;8.372;2022-08-19T11:29:02;5.22;;;4.72;;
14994;SDS011;7593;49.006;8.372;2022-08-19T11:31:32;7.60;;;5.10;;
14994;SDS011;7593;49.006;8.372;2022-08-19T11:34:01;5.63;;;5.07;;
14994;SDS011;7593;49.006;8.372;2022-08-19T11:36:30;5.80;;;5.32;;
14994;SDS011;7593;49.006;8.372;2022-08-19T11:38:58;7.55;;;5.50;;
14994;SDS011;7593;49.006;8.372;2022-08-19T11:41:27;8.52;;;5.60;;
14994;SDS011;7593;49.006;8.372;2022-08-19T11:43:54;5.65;;;5.20;;
14994;SDS011;7593;49.006;8.372;2022-08-19T11:46:22;5.60;;;4.65;;
14994;SDS011;7593;49.006;8.372;2022-08-19T11:48:50;5.55;;;4.50;;
14994;SDS011;7593;49.006;8.372;2022-08-19T11:51:20;4.60;;;4.20;;
14994;SDS011;7593;49.006;8.372;2022-08-19T11:53:49;5.95;;;3.78;;
14994;SDS011;7593;49.006;8.372;2022-08-19T11:56:17;4.35;;;4.05;;
14994;SDS011;7593;49.006;8.372;2022-08-19T11:58:46;5.05;;;3.83;;
14994;SDS011;7593;49.006;8.372;2022-08-19T12:01:13;4.32;;;4.00;;
14994;SDS011;7593;49.006;8.372;2022-08-19T12:03:41;4.25;;;3.95;;
14994;SDS011;7593;49.006;8.372;2022-08-19T12:06:10;4.75;;;3.50;;
14994;SDS011;7593;49.006;8.372;2022-08-19T12:08:40;3.60;;;3.30;;
14994;SDS011;7593;49.006;8.372;2022-08-19T12:11:08;4.32;;;3.47;;
14994;SDS011;7593;49.006;8.372;2022-08-19T12:13:35;4.93;;;3.42;;
14994;SDS011;7593;49.006;8.372;2022-08-19T12:16:08;6.20;;;3.42;;
14994;SDS011;7593;49.006;8.372;2022-08-19T12:18:37;4.93;;;4.03;;
14994;SDS011;7593;49.006;8.372;2022-08-19T12:21:06;5.57;;;4.57;;
14994;SDS011;7593;49.006;8.372;2022-08-19T12:23:35;5.10;;;4.63;;
14994;SDS011;7593;49.006;8.372;2022-08-19T12:26:02;5.80;;;4.50;;
14994;SDS011;7593;49.006;8.372;2022-08-19T12:28:30;6.75;;;5.22;;
14994;SDS011;7593;49.006;8.372;2022-08-19T12:30:57;5.43;;;4.90;;
14994;SDS011;7593;49.006;8.372;2022-08-19T12:33:25;5.60;;;5.13;;
14994;SDS011;7593;49.006;8.372;2022-08-19T12:35:53;7.13;;;5.30;;
14994;SDS011;7593;49.006;8.372;2022-08-19T12:38:21;7.57;;;5.63;;
14994;SDS011;7593;49.006;8.372;2022-08-19T12:40:49;6.00;;;5.40;;
14994;SDS011;7593;49.006;8.372;2022-08-19T12:43:16;5.75;;;5.10;;
14994;SDS011;7593;49.006;8.372;2022-08-19T12:45:44;6.05;;;5.25;;
14994;SDS011;7593;49.006;8.372;2022-08-19T12:48:11;5.53;;;5.13;;
14994;SDS011;7593;49.006;8.372;2022-08-19T12:50:40;6.90;;;4.70;;
14994;SDS011;7593;49.006;8.372;2022-08-19T12:53:10;4.93;;;4.53;;
14994;SDS011;7593;49.006;8.372;2022-08-19T12:55:37;4.85;;;4.38;;
14994;SDS011;7593;49.006;8.372;2022-08-19T12:58:04;4.25;;;3.90;;
14994;SDS011;7593;49.006;8.372;2022-08-19T13:00:31;4.18;;;3.88;;
14994;SDS011;7593;49.006;8.372;2022-08-19T13:02:59;4.20;;;3.83;;
14994;SDS011;7593;49.006;8.372;2022-08-19T13:05:26;4.55;;;3.50;;
14994;SDS011;7593;49.006;8.372;2022-08-19T13:07:57;3.58;;;3.28;;
14994;SDS011;7593;49.006;8.372;2022-08-19T13:10:26;7.43;;;3.75;;
14994;SDS011;7593;49.006;8.372;2022-08-19T13:12:56;4.10;;;3.70;;
14994;SDS011;7593;49.006;8.372;2022-08-19T13:15:24;3.70;;;3.20;;
14994;SDS011;7593;49.006;8.372;2022-08-19T13:17:53;3.40;;;3.10;;
14994;SDS011;7593;49.006;8.372;2022-08-19T13:20:21;3.70;;;3.08;;
14994;SDS011;7593;49.006;8.372;2022-08-19T13:22:48;3.30;;;3.00;;
14994;SDS011;7593;49.006;8.372;2022-08-19T13:25:16;2.97;;;2.67;;
14994;SDS011;7593;49.006;8.372;2022-08-19T13:27:45;2.75;;;2.55;;
14994;SDS011;7593;49.006;8.372;2022-08-19T13:30:13;4.00;;;2.50;;
14994;SDS011;7593;49.006;8.372;2022-08-19T13:32:58;2.80;;;2.00;;
14994;SDS011;7593;49.006;8.372;2022-08-19T13:35:39;2.90;;;2.50;;
14994;SDS011;7593;49.006;8.372;2022-08-19T13:38:08;3.00;;;2.17;;
14994;SDS011;7593;49.006;8.372;2022-08-19T13:40:37;2.53;;;2.30;;
14994;SDS011;7593;49.006;8.372;2022-08-19T13:43:05;5.25;;;2.40;;
14994;SDS011;7593;49.006;8.372;2022-08-19T13:45:33;3.25;;;2.10;;
14994;SDS011;7593;49.006;8.372;2022-08-19T13:48:00;3.55;;;2.20;;
14994;SDS011;7593;49.006;8.372;2022-08-19T13:50:31;2.92;;;2.00;;
14994;SDS011;7593;49.006;8.372;2022-08-19T13:52:59;2.65;;;2.03;;
14994;SDS011;7593;49.006;8.372;2022-08-19T13:55:26;2.20;;;1.80;;
14994;SDS011;7593;49.006;8.372;2022-08-19T13:57:56;3.33;;;2.20;;
14994;SDS011;7593;49.006;8.372;2022-08-19T14:00:27;4.45;;;2.38;;
14994;SDS011;7593;49.006;8.372;2022-08-19T14:02:56;3.38;;;2.30;;
14994;SDS011;7593;49.006;8.372;2022-08-19T14:05:24;2.75;;;2.30;;
14994;SDS011;7593;49.006;8.372;2022-08-19T14:07:52;4.80;;;2.60;;
14994;SDS011;7593;49.006;8.372;2022-08-19T14:10:19;2.72;;;2.53;;
14994;SDS011;7593;49.006;8.372;2022-08-19T14:12:48;3.55;;;2.60;;
14994;SDS011;7593;49.006;8.372;2022-08-19T14:15:16;3.30;;;2.97;;
14994;SDS011;7593;49.006;8.372;2022-08-19T14:17:43;8.52;;;3.33;;
14994;SDS011;7593;49.006;8.372;2022-08-19T14:20:12;4.38;;;2.90;;
14994;SDS011;7593;49.006;8.372;2022-08-19T14:22:41;3.30;;;2.85;;
14994;SDS011;7593;49.006;8.372;2022-08-19T14:25:10;4.68;;;3.20;;
14994;SDS011;7593;49.006;8.372;2022-08-19T14:27:39;4.68;;;2.95;;
14994;SDS011;7593;49.006;8.372;2022-08-19T14:30:07;3.47;;;2.83;;
14994;SDS011;7593;49.006;8.372;2022-08-19T14:32:37;4.90;;;3.00;;
14994;SDS011;7593;49.006;8.372;2022-08-19T14:35:04;4.28;;;3.00;;
14994;SDS011;7593;49.006;8.372;2022-08-19T14:37:33;5.60;;;3.10;;
14994;SDS011;7593;49.006;8.372;2022-08-19T14:40:00;4.18;;;3.13;;
14994;SDS011;7593;49.006;8.372;2022-08-19T14:42:27;3.50;;;3.20;;
14994;SDS011;7593;49.006;8.372;2022-08-19T14:44:56;5.47;;;3.10;;
14994;SDS011;7593;49.006;8.372;2022-08-19T14:47:24;4.43;;;3.00;;
14994;SDS011;7593;49.006;8.372;2022-08-19T14:49:53;3.90;;;3.50;;
14994;SDS011;7593;49.006;8.372;2022-08-19T14:52:20;3.38;;;3.08;;
14994;SDS011;7593;49.006;8.372;2022-08-19T14:54:47;6.45;;;3.42;;
14994;SDS011;7593;49.006;8.372;2022-08-19T14:57:14;7.38;;;3.65;;